Time;durP1;ratioP1;P1;durP2;ratioP2;P2;SDS_P1;SDS_P2;PMS_P1;PMS_P2;Temp;Humidity;BMP_temperature;BMP_pressure;BME280_temperature;BME280_humidity;BME280_pressure;Samples;Min_cycle;Max_cycle;Signal;HPM_P1;HPM_P2
2021/05/07 00:01:26;;;;;;;2.45;0.52;;;20.80;48.40;;;;;;5031694;28;20038;-34
2021/05/07 00:03:52;;;;;;;0.70;0.35;;;20.80;48.40;;;;;;5062724;28;20029;-34
2021/05/07 00:06:17;;;;;;;2.88;0.60;;;20.70;48.20;;;;;;5033939;28;20467;-33
2021/05/07 00:08:43;;;;;;;2.45;0.40;;;20.70;48.30;;;;;;5034768;28;20463;-34
2021/05/07 00:11:15;;;;;;;1.00;0.55;;;20.70;48.30;;;;;;5034322;28;20026;-34
2021/05/07 00:13:41;;;;;;;;;;;20.70;48.20;;;;;;5032444;28;20029;-34
2021/05/07 00:16:07;;;;;;;0.90;0.35;;;20.80;48.30;;;;;;5033822;28;19905;-34
2021/05/07 00:18:33;;;;;;;2.47;0.68;;;20.70;48.20;;;;;;5035360;28;20159;-34
2021/05/07 00:20:59;;;;;;;1.13;0.30;;;20.70;48.20;;;;;;5066471;28;20068;-34
2021/05/07 00:23:25;;;;;;;0.55;0.40;;;20.70;48.20;;;;;;5067212;28;20459;-33
2021/05/07 00:25:52;;;;;;;1.77;0.40;;;20.80;48.20;;;;;;5034472;28;20100;-38
2021/05/07 00:28:19;;;;;;;2.00;0.40;;;20.80;48.30;;;;;;5066728;28;20071;-34
2021/05/07 00:30:45;;;;;;;1.20;0.40;;;20.70;48.10;;;;;;5065982;28;20033;-34
2021/05/07 00:33:11;;;;;;;2.38;0.55;;;20.70;48.10;;;;;;5035140;28;20029;-34
2021/05/07 00:35:37;;;;;;;0.45;0.40;;;20.70;48.10;;;;;;5034648;28;20022;-44
2021/05/07 00:38:03;;;;;;;1.50;0.45;;;20.70;48.20;;;;;;5034116;28;20470;-34
2021/05/07 00:40:29;;;;;;;2.20;0.70;;;20.70;48.10;;;;;;5035215;28;20477;-33
2021/05/07 00:42:55;;;;;;;1.00;0.70;;;20.70;48.10;;;;;;5065923;28;20033;-33
2021/05/07 00:45:21;;;;;;;1.42;0.50;;;20.70;48.10;;;;;;5034801;28;20033;-34
2021/05/07 00:47:53;;;;;;;1.25;0.55;;;20.70;48.10;;;;;;5034322;28;20052;-34
2021/05/07 00:50:19;;;;;;;1.23;0.28;;;20.70;48.10;;;;;;5033878;28;20438;-34
2021/05/07 00:52:44;;;;;;;0.98;0.40;;;20.70;48.10;;;;;;5066062;28;20064;-34
2021/05/07 00:55:11;;;;;;;1.00;0.40;;;20.70;48.10;;;;;;5034514;28;20471;-34
2021/05/07 00:57:38;;;;;;;0.93;0.40;;;20.70;48.10;;;;;;5034591;28;20038;-34
2021/05/07 01:00:06;;;;;;;2.03;0.38;;;20.70;48.00;;;;;;5034286;28;20036;-34
2021/05/07 01:02:32;;;;;;;1.63;0.43;;;20.70;48.00;;;;;;5033088;28;20033;-34
2021/05/07 01:04:57;;;;;;;1.27;0.50;;;20.70;48.00;;;;;;5032507;28;20025;-34
2021/05/07 01:07:23;;;;;;;1.65;0.40;;;20.70;47.90;;;;;;5031201;28;20029;-34
2021/05/07 01:09:50;;;;;;;0.65;0.40;;;20.70;48.00;;;;;;5033524;28;20082;-34
2021/05/07 01:12:17;;;;;;;0.95;0.30;;;20.70;47.90;;;;;;5066313;28;20124;-33
2021/05/07 01:15:12;;;;;;;1.92;0.40;;;20.70;48.00;;;;;;5033737;28;20112;-34
2021/05/07 01:17:43;;;;;;;0.43;0.35;;;20.70;47.90;;;;;;5064722;28;20033;-44
2021/05/07 01:20:25;;;;;;;1.03;0.30;;;20.70;47.90;;;;;;5033940;28;20029;-34
2021/05/07 01:23:11;;;;;;;0.93;0.55;;;20.70;47.90;;;;;;5033381;28;20291;-34
2021/05/07 01:25:44;;;;;;;1.65;0.47;;;20.70;47.90;;;;;;5032399;28;20124;-34
2021/05/07 01:28:12;;;;;;;0.60;0.40;;;20.70;47.80;;;;;;5065902;28;20123;-33
2021/05/07 01:30:46;;;;;;;0.65;0.40;;;20.70;47.80;;;;;;5033757;28;20037;-44
2021/05/07 01:33:13;;;;;;;0.75;0.50;;;20.70;47.80;;;;;;5032559;28;20075;-33
2021/05/07 01:35:40;;;;;;;0.77;0.60;;;20.70;47.80;;;;;;5032208;28;20049;-42
2021/05/07 01:38:08;;;;;;;1.08;0.40;;;20.70;47.80;;;;;;5033366;28;20021;-34
2021/05/07 01:40:38;;;;;;;1.33;0.38;;;20.70;47.70;;;;;;5033853;28;20053;-33
2021/05/07 01:43:04;;;;;;;1.02;0.30;;;20.70;47.70;;;;;;5031855;28;20034;-34
2021/05/07 01:45:33;;;;;;;0.40;0.30;;;20.70;47.60;;;;;;5033646;28;20064;-34
2021/05/07 01:47:59;;;;;;;0.82;0.40;;;20.70;47.70;;;;;;5064933;28;20367;-34
2021/05/07 01:50:28;;;;;;;0.57;0.57;;;20.70;47.60;;;;;;5065635;28;20364;-33
2021/05/07 01:52:55;;;;;;;0.93;0.30;;;20.70;47.70;;;;;;5064666;28;20022;-34
2021/05/07 01:55:22;;;;;;;0.30;0.30;;;20.70;47.70;;;;;;5065189;28;20033;-34
2021/05/07 01:57:48;;;;;;;1.60;0.43;;;20.70;47.70;;;;;;5064359;28;20053;-34
2021/05/07 02:00:17;;;;;;;0.43;0.20;;;20.70;47.60;;;;;;5065551;28;20026;-33
2021/05/07 02:02:44;;;;;;;0.25;0.20;;;20.70;47.60;;;;;;5028929;28;20601;-42
2021/05/07 02:05:11;;;;;;;2.38;0.30;;;20.70;47.60;;;;;;5065242;28;20025;-34
2021/05/07 02:07:37;;;;;;;0.40;0.30;;;20.70;47.70;;;;;;5033006;28;20033;-33
2021/05/07 02:10:12;;;;;;;0.63;0.28;;;20.70;47.60;;;;;;5032161;28;20026;-34
2021/05/07 02:12:39;;;;;;;1.60;0.30;;;20.70;47.60;;;;;;5033032;28;20021;-33
2021/05/07 02:15:08;;;;;;;0.50;0.30;;;20.70;47.60;;;;;;5032338;28;20029;-34
2021/05/07 02:17:34;;;;;;;1.88;0.40;;;20.70;47.60;;;;;;5031855;28;20103;-33
2021/05/07 02:20:00;;;;;;;0.82;0.38;;;20.70;47.60;;;;;;5031108;28;20084;-34
2021/05/07 02:22:25;;;;;;;0.65;0.40;;;20.70;47.60;;;;;;5031780;28;20042;-33
2021/05/07 02:24:51;;;;;;;1.60;0.40;;;20.70;47.60;;;;;;5030918;28;20032;-34
2021/05/07 02:27:17;;;;;;;1.13;0.40;;;20.70;47.60;;;;;;5031742;28;20452;-33
2021/05/07 02:29:42;;;;;;;1.27;0.35;;;20.70;47.50;;;;;;5031134;28;20025;-42
2021/05/07 02:32:08;;;;;;;0.95;0.30;;;20.70;47.50;;;;;;5031428;28;20064;-34
2021/05/07 02:34:34;;;;;;;0.77;0.20;;;20.70;47.50;;;;;;5031393;28;20041;-33
2021/05/07 02:36:59;;;;;;;0.50;0.30;;;20.70;47.50;;;;;;5030727;28;20069;-34
2021/05/07 02:39:25;;;;;;;0.30;0.20;;;20.70;47.50;;;;;;5032457;28;20025;-34
2021/05/07 02:41:51;;;;;;;1.02;0.38;;;20.70;47.40;;;;;;5030609;28;20113;-34
2021/05/07 02:44:16;;;;;;;0.30;0.30;;;20.70;47.40;;;;;;5032684;28;20056;-34
2021/05/07 02:46:42;;;;;;;1.25;0.38;;;20.70;47.40;;;;;;5032455;28;20021;-42
2021/05/07 02:49:08;;;;;;;1.50;0.30;;;20.70;47.40;;;;;;5031649;28;20462;-34
2021/05/07 02:51:34;;;;;;;0.73;0.32;;;20.70;47.30;;;;;;5032387;28;20475;-33
2021/05/07 02:54:01;;;;;;;0.60;0.20;;;20.70;47.30;;;;;;5030231;28;20056;-34
2021/05/07 02:56:27;;;;;;;0.20;0.20;;;20.70;47.30;;;;;;5029613;28;20040;-34
2021/05/07 02:58:52;;;;;;;0.80;0.30;;;20.70;47.30;;;;;;5031093;28;20045;-34
2021/05/07 03:01:19;;;;;;;0.52;0.30;;;20.70;47.20;;;;;;5064169;28;20038;-34
2021/05/07 03:03:45;;;;;;;0.20;0.20;;;20.70;47.20;;;;;;5031200;28;20025;-45
2021/05/07 03:06:10;;;;;;;0.93;0.28;;;20.70;47.20;;;;;;5032152;28;20021;-34
2021/05/07 03:08:37;;;;;;;0.68;0.30;;;20.70;47.20;;;;;;5030996;28;20470;-34
2021/05/07 03:11:03;;;;;;;0.47;0.20;;;20.70;47.20;;;;;;5029782;28;20033;-38
2021/05/07 03:13:29;;;;;;;0.65;0.30;;;20.70;47.20;;;;;;5031161;28;20029;-33
2021/05/07 03:15:55;;;;;;;0.40;0.30;;;20.70;47.20;;;;;;5031356;28;20078;-34
2021/05/07 03:18:21;;;;;;;0.52;0.20;;;20.70;47.20;;;;;;5032059;28;20429;-37
2021/05/07 03:20:48;;;;;;;0.30;0.20;;;20.70;47.10;;;;;;5029763;28;20035;-34
2021/05/07 03:23:14;;;;;;;0.80;0.30;;;20.70;47.10;;;;;;5032043;28;20483;-34
2021/05/07 03:25:40;;;;;;;0.68;0.30;;;20.70;47.10;;;;;;5032273;28;20029;-34
2021/05/07 03:28:07;;;;;;;0.95;0.40;;;20.70;47.10;;;;;;5029988;28;20038;-34
2021/05/07 03:30:33;;;;;;;0.40;0.30;;;20.70;47.10;;;;;;5031981;28;20072;-34
2021/05/07 03:33:00;;;;;;;1.88;0.40;;;20.70;47.10;;;;;;5029990;28;20060;-34
2021/05/07 03:35:26;;;;;;;1.58;0.30;;;20.70;47.10;;;;;;5031397;28;20096;-34
2021/05/07 03:37:52;;;;;;;0.25;0.20;;;20.70;47.10;;;;;;5031487;28;20034;-34
2021/05/07 03:40:18;;;;;;;0.30;0.20;;;20.70;47.00;;;;;;5032936;28;20036;-34
2021/05/07 03:42:46;;;;;;;0.55;0.30;;;20.70;47.10;;;;;;5034590;28;20041;-45
2021/05/07 03:45:16;;;;;;;1.45;0.10;;;20.70;47.00;;;;;;5035875;28;20466;-41
2021/05/07 03:47:43;;;;;;;0.20;0.10;;;20.70;47.00;;;;;;5034722;28;20068;-34
2021/05/07 03:50:11;;;;;;;0.20;0.20;;;20.70;47.00;;;;;;5031610;28;20040;-34
2021/05/07 03:52:37;;;;;;;0.70;0.40;;;20.70;47.00;;;;;;5067848;28;20049;-35
2021/05/07 03:55:06;;;;;;;0.13;0.10;;;20.70;47.00;;;;;;5034777;28;20064;-34
2021/05/07 03:57:32;;;;;;;0.10;0.10;;;20.70;47.00;;;;;;5035555;28;20494;-34
2021/05/07 03:59:57;;;;;;;2.38;0.28;;;20.70;47.00;;;;;;5035020;28;20030;-34
2021/05/07 04:02:24;;;;;;;3.28;0.30;;;20.70;46.90;;;;;;5035604;28;20029;-33
2021/05/07 04:04:53;;;;;;;0.70;0.20;;;20.70;46.90;;;;;;5034730;28;20029;-34
2021/05/07 04:07:20;;;;;;;0.77;0.13;;;20.70;46.90;;;;;;5035677;28;20026;-34
2021/05/07 04:09:58;;;;;;;0.22;0.20;;;20.70;46.90;;;;;;5035161;28;20445;-44
2021/05/07 04:14:59;;;;;;;0.20;0.20;;;20.70;46.90;;;;;;5034818;28;20033;-34
2021/05/07 04:17:25;;;;;;;0.75;0.30;;;20.70;47.50;;;;;;5035196;28;20038;-34
2021/05/07 04:19:50;;;;;;;0.10;0.10;;;20.70;46.90;;;;;;5034339;28;20470;-34
2021/05/07 04:22:16;;;;;;;1.20;0.20;;;20.70;46.80;;;;;;5035018;28;20029;-34
2021/05/07 04:24:43;;;;;;;0.40;0.20;;;20.70;46.80;;;;;;5035398;28;20061;-34
2021/05/07 04:27:09;;;;;;;1.20;0.47;;;20.70;46.80;;;;;;5034659;28;20474;-34
2021/05/07 04:29:34;;;;;;;1.02;0.30;;;20.70;46.80;;;;;;5033903;28;20030;-34
2021/05/07 04:32:00;;;;;;;0.20;0.20;;;20.70;46.80;;;;;;5034299;28;20117;-34
2021/05/07 04:34:26;;;;;;;0.95;0.20;;;20.70;46.80;;;;;;5035198;28;20104;-34
2021/05/07 04:36:53;;;;;;;0.45;0.30;;;20.70;46.80;;;;;;5034080;28;20022;-34
2021/05/07 04:39:19;;;;;;;0.17;0.17;;;20.70;46.80;;;;;;5033708;28;20025;-34
2021/05/07 04:41:45;;;;;;;0.70;0.20;;;20.70;46.70;;;;;;5033349;28;20033;-45
2021/05/07 04:44:10;;;;;;;0.17;0.13;;;20.70;46.80;;;;;;5030226;28;20083;-36
2021/05/07 04:46:36;;;;;;;0.30;0.20;;;20.70;46.80;;;;;;5034687;28;20026;-33
2021/05/07 04:49:02;;;;;;;0.65;0.30;;;20.70;46.70;;;;;;5033826;28;20086;-34
2021/05/07 04:51:27;;;;;;;1.50;0.30;;;20.70;46.70;;;;;;5034216;28;20113;-34
2021/05/07 04:53:54;;;;;;;0.45;0.20;;;20.70;46.80;;;;;;5032487;28;20557;-34
2021/05/07 04:56:20;;;;;;;0.32;0.28;;;20.80;46.70;;;;;;5034312;28;20497;-34
2021/05/07 04:58:45;;;;;;;1.60;0.20;;;20.70;46.70;;;;;;5034300;28;20053;-46
2021/05/07 05:01:11;;;;;;;0.40;0.30;;;20.70;46.70;;;;;;5032765;28;20044;-34
2021/05/07 05:03:37;;;;;;;0.40;0.20;;;20.70;46.70;;;;;;5066422;28;20040;-35
2021/05/07 05:06:04;;;;;;;0.38;0.30;;;20.80;46.80;;;;;;5033482;28;20021;-35
2021/05/07 05:08:33;;;;;;;2.92;0.30;;;20.80;47.00;;;;;;5033525;28;20037;-35
2021/05/07 05:11:01;;;;;;;1.67;0.25;;;20.80;47.00;;;;;;5033558;28;20077;-39
2021/05/07 05:13:29;;;;;;;7.50;0.65;;;20.80;46.90;;;;;;5033022;28;20030;-34
2021/05/07 05:15:58;;;;;;;2.25;0.43;;;20.80;46.90;;;;;;5034122;28;20053;-47
2021/05/07 05:18:34;;;;;;;3.63;0.30;;;20.90;46.90;;;;;;5033738;28;20038;-35
2021/05/07 05:21:05;;;;;;;2.53;0.40;;;20.90;46.80;;;;;;5036048;28;20470;-35
2021/05/07 05:23:34;;;;;;;1.67;0.30;;;20.90;46.80;;;;;;5034436;28;20463;-35
2021/05/07 05:26:03;;;;;;;1.40;0.20;;;21.00;46.90;;;;;;5033988;28;20035;-41
2021/05/07 05:28:29;;;;;;;0.40;0.20;;;21.00;46.80;;;;;;5032681;28;20017;-34
2021/05/07 05:30:57;;;;;;;3.42;1.08;;;21.10;46.70;;;;;;5034202;28;20029;-39
2021/05/07 05:33:27;;;;;;;3.53;0.30;;;21.00;46.70;;;;;;5033208;28;20060;-35
2021/05/07 05:35:56;;;;;;;3.40;0.57;;;21.10;46.70;;;;;;5034318;28;20025;-35
2021/05/07 05:38:26;;;;;;;2.05;0.20;;;21.10;46.70;;;;;;5035463;28;20029;-37
2021/05/07 05:40:54;;;;;;;0.82;0.20;;;21.10;46.60;;;;;;5031809;28;20075;-35
2021/05/07 05:43:23;;;;;;;0.65;0.30;;;21.10;46.80;;;;;;5034873;28;20031;-35
2021/05/07 05:45:52;;;;;;;2.65;0.45;;;21.10;46.70;;;;;;5032919;28;20025;-35
2021/05/07 05:48:22;;;;;;;1.50;0.40;;;21.20;47.00;;;;;;5033516;28;20093;-38
2021/05/07 05:50:52;;;;;;;2.25;0.30;;;21.20;46.80;;;;;;5031409;28;20486;-44
2021/05/07 05:53:22;;;;;;;1.52;0.30;;;21.20;46.80;;;;;;5034930;28;20026;-35
2021/05/07 05:55:49;;;;;;;3.97;0.32;;;21.30;46.80;;;;;;5035578;28;20454;-35
2021/05/07 05:58:18;;;;;;;3.80;0.60;;;21.20;47.00;;;;;;5033999;28;20347;-35
2021/05/07 06:00:47;;;;;;;3.20;0.40;;;21.20;47.00;;;;;;5034217;28;20026;-44
2021/05/07 06:03:15;;;;;;;3.83;0.60;;;21.30;47.00;;;;;;5034350;28;20036;-35
2021/05/07 06:05:43;;;;;;;4.30;0.70;;;21.20;47.00;;;;;;5034646;28;20097;-36
2021/05/07 06:08:12;;;;;;;3.95;0.70;;;21.30;47.00;;;;;;5033993;28;20036;-35
2021/05/07 06:10:39;;;;;;;3.35;0.43;;;21.30;46.90;;;;;;5034174;28;20028;-35
2021/05/07 06:13:05;;;;;;;0.70;0.40;;;21.30;46.80;;;;;;5030316;28;20053;-34
2021/05/07 06:15:33;;;;;;;1.58;0.60;;;21.30;46.90;;;;;;5033964;28;20501;-35
2021/05/07 06:18:01;;;;;;;2.30;0.63;;;21.30;46.70;;;;;;5032624;28;20104;-35
2021/05/07 06:20:30;;;;;;;5.53;0.30;;;21.30;46.60;;;;;;5034710;28;20057;-39
2021/05/07 06:22:58;;;;;;;4.32;1.23;;;21.40;46.70;;;;;;5033235;28;20025;-35
2021/05/07 06:25:27;;;;;;;3.63;0.70;;;21.40;46.70;;;;;;5034902;28;20104;-34
2021/05/07 06:27:55;;;;;;;3.25;0.60;;;21.40;46.70;;;;;;5033060;28;20052;-35
2021/05/07 06:30:23;;;;;;;6.20;0.50;;;21.40;46.60;;;;;;5030890;28;20109;-34
2021/05/07 06:32:51;;;;;;;5.35;0.60;;;21.40;46.60;;;;;;5032309;28;20057;-35
2021/05/07 06:35:17;;;;;;;2.13;0.50;;;21.30;46.70;;;;;;5012095;28;20467;-33
2021/05/07 06:37:45;;;;;;;1.67;0.40;;;21.40;46.70;;;;;;5012827;28;20071;-35
2021/05/07 06:40:15;;;;;;;2.53;0.63;;;21.40;46.70;;;;;;5014106;28;20029;-35
2021/05/07 06:42:46;;;;;;;4.97;0.70;;;21.30;46.90;;;;;;5014425;28;20033;-45
2021/05/07 06:45:14;;;;;;;2.08;0.55;;;21.30;46.90;;;;;;5013252;28;20026;-35
2021/05/07 06:47:42;;;;;;;1.48;0.60;;;21.30;46.80;;;;;;5013235;28;20466;-35
2021/05/07 06:50:12;;;;;;;4.10;0.77;;;21.30;46.90;;;;;;5014566;28;20024;-44
2021/05/07 06:52:41;;;;;;;7.35;0.73;;;21.40;47.00;;;;;;5010248;28;20525;-45
2021/05/07 06:55:11;;;;;;;2.97;0.70;;;21.40;47.00;;;;;;5013782;28;20520;-49
2021/05/07 06:57:41;;;;;;;2.33;0.73;;;21.40;47.50;;;;;;5013370;28;20030;-46
2021/05/07 07:00:10;;;;;;;5.40;0.80;;;21.40;48.00;;;;;;5011740;28;20030;-47
2021/05/07 07:02:39;;;;;;;2.85;0.60;;;21.40;47.90;;;;;;5012239;28;20069;-45
2021/05/07 07:05:08;;;;;;;2.70;0.70;;;21.40;48.10;;;;;;5010908;28;20044;-46
2021/05/07 07:07:37;;;;;;;2.85;0.60;;;21.40;48.10;;;;;;5012192;28;20060;-46
2021/05/07 07:10:06;;;;;;;1.73;0.63;;;21.40;48.10;;;;;;5028223;28;20104;-47
2021/05/07 07:12:34;;;;;;;1.55;0.70;;;21.50;48.10;;;;;;5033505;28;20033;-45
2021/05/07 07:15:02;;;;;;;2.85;0.75;;;21.40;48.70;;;;;;5030073;28;20124;-46
2021/05/07 07:17:31;;;;;;;3.42;0.70;;;21.40;48.10;;;;;;5033428;28;20034;-45
2021/05/07 07:19:57;;;;;;;2.63;0.50;;;21.40;48.10;;;;;;5031717;28;20017;-45
2021/05/07 07:22:24;;;;;;;7.40;2.13;;;21.40;48.30;;;;;;5029782;28;20116;-46
2021/05/07 07:24:52;;;;;;;2.95;0.60;;;21.40;48.00;;;;;;5033935;28;20037;-45
2021/05/07 07:27:18;;;;;;;1.60;0.70;;;21.40;48.10;;;;;;5026582;28;20144;-44
2021/05/07 07:29:47;;;;;;;0.73;0.45;;;21.50;48.20;;;;;;5031376;28;20455;-41
2021/05/07 07:32:18;;;;;;;5.97;0.70;;;21.50;48.20;;;;;;5032461;28;20084;-36
2021/05/07 07:34:46;;;;;;;4.43;0.70;;;21.40;48.00;;;;;;5031627;28;20104;-35
2021/05/07 07:37:13;;;;;;;6.93;0.80;;;21.40;48.20;;;;;;5031267;28;20459;-35
2021/05/07 07:39:42;;;;;;;4.25;0.80;;;21.40;48.10;;;;;;5031471;28;20041;-34
2021/05/07 07:42:10;;;;;;;1.50;0.70;;;21.40;48.10;;;;;;5032823;28;20126;-35
2021/05/07 07:44:38;;;;;;;4.28;0.80;;;21.40;48.00;;;;;;5032143;28;20079;-35
2021/05/07 07:47:04;;;;;;;2.03;0.60;;;21.40;47.90;;;;;;5030897;28;20148;-33
2021/05/07 07:49:29;;;;;;;1.75;0.68;;;21.40;47.90;;;;;;5031070;28;20120;-34
2021/05/07 07:51:59;;;;;;;2.65;0.57;;;21.40;47.80;;;;;;5031841;28;20520;-35
2021/05/07 07:54:27;;;;;;;5.05;0.70;;;21.40;47.90;;;;;;5032078;28;20021;-34
2021/05/07 07:56:56;;;;;;;3.25;0.52;;;21.40;47.80;;;;;;5032755;28;20064;-35
2021/05/07 07:59:24;;;;;;;1.85;0.55;;;21.40;47.70;;;;;;5033866;28;20115;-35
2021/05/07 08:01:52;;;;;;;1.92;0.77;;;21.40;47.80;;;;;;5033233;28;20112;-35
2021/05/07 08:04:20;;;;;;;3.08;0.70;;;21.40;47.60;;;;;;5031426;28;20118;-35
2021/05/07 08:06:49;;;;;;;4.30;1.00;;;21.30;47.70;;;;;;5033104;28;20025;-35
2021/05/07 08:09:16;;;;;;;3.65;1.00;;;21.30;47.60;;;;;;5030563;28;20026;-35
2021/05/07 08:11:44;;;;;;;4.28;0.80;;;21.30;47.60;;;;;;5030103;28;20033;-35
2021/05/07 08:14:11;;;;;;;2.30;0.60;;;21.30;47.60;;;;;;5031168;28;20044;-35
2021/05/07 08:16:39;;;;;;;2.45;0.68;;;21.20;47.50;;;;;;5029570;28;20076;-35
2021/05/07 08:19:06;;;;;;;2.45;1.02;;;21.30;47.60;;;;;;5031012;28;20025;-34
2021/05/07 08:21:34;;;;;;;3.67;0.77;;;21.30;47.50;;;;;;5029758;28;20563;-34
2021/05/07 08:24:01;;;;;;;5.75;1.20;;;21.30;47.60;;;;;;5029019;28;20037;-35
2021/05/07 08:26:29;;;;;;;1.77;0.50;;;21.30;47.50;;;;;;5065129;28;20029;-35
2021/05/07 08:28:56;;;;;;;0.80;0.60;;;21.20;47.50;;;;;;5033837;28;20040;-47
2021/05/07 08:31:24;;;;;;;3.97;0.80;;;21.20;47.50;;;;;;5066286;28;20103;-35
2021/05/07 08:33:52;;;;;;;3.30;0.50;;;21.20;47.70;;;;;;5033126;28;20401;-41
2021/05/07 08:36:19;;;;;;;2.88;0.70;;;21.20;47.50;;;;;;5033859;28;20414;-35
2021/05/07 08:38:45;;;;;;;1.48;0.60;;;21.20;47.60;;;;;;5034754;28;20036;-34
2021/05/07 08:41:11;;;;;;;2.10;0.90;;;21.20;47.40;;;;;;5033438;28;20880;-34
2021/05/07 08:43:37;;;;;;;1.33;0.57;;;21.10;47.40;;;;;;5034738;28;20433;-33
2021/05/07 08:46:04;;;;;;;3.05;0.80;;;21.10;47.40;;;;;;5065983;28;20040;-34
2021/05/07 08:48:31;;;;;;;1.65;0.70;;;21.10;47.40;;;;;;5034646;28;20490;-33
2021/05/07 08:50:56;;;;;;;3.67;0.80;;;21.10;47.30;;;;;;5065868;28;20121;-36
2021/05/07 08:53:22;;;;;;;2.67;0.65;;;21.10;47.30;;;;;;5066392;28;20117;-33
2021/05/07 08:55:48;;;;;;;3.67;0.52;;;21.10;47.30;;;;;;5033213;28;20028;-34
2021/05/07 08:58:16;;;;;;;1.40;0.57;;;21.10;47.20;;;;;;5065624;28;20049;-34
2021/05/07 09:00:42;;;;;;;3.22;0.70;;;21.10;47.20;;;;;;5034321;28;20029;-34
2021/05/07 09:03:18;;;;;;;2.60;0.60;;;21.10;47.10;;;;;;5033855;28;20079;-33
2021/05/07 09:05:44;;;;;;;1.85;0.80;;;21.10;47.00;;;;;;5034164;28;20029;-34
2021/05/07 09:08:10;;;;;;;1.42;0.60;;;21.10;47.00;;;;;;5032471;28;20026;-34
2021/05/07 09:10:41;;;;;;;1.88;0.77;;;21.10;46.90;;;;;;5034456;28;20036;-33
2021/05/07 09:13:09;;;;;;;1.50;0.50;;;21.10;46.80;;;;;;5032048;28;20026;-34
2021/05/07 09:15:50;;;;;;;1.73;0.60;;;21.10;46.90;;;;;;5031083;28;20033;-34
2021/05/07 09:18:17;;;;;;;1.67;0.40;;;21.10;46.80;;;;;;5033642;28;20498;-33
2021/05/07 09:20:49;;;;;;;2.97;0.65;;;21.10;46.70;;;;;;5066094;28;20453;-33
2021/05/07 09:23:16;;;;;;;1.23;0.60;;;21.10;46.70;;;;;;5033160;28;20030;-34
2021/05/07 09:25:45;;;;;;;2.08;0.60;;;21.10;46.70;;;;;;5034269;28;20033;-38
2021/05/07 09:28:13;;;;;;;1.75;0.85;;;21.10;46.70;;;;;;5032880;28;20394;-33
2021/05/07 09:30:40;;;;;;;1.30;0.63;;;21.10;46.60;;;;;;5032970;28;20044;-34
2021/05/07 09:33:11;;;;;;;2.53;0.73;;;21.10;46.60;;;;;;5064842;28;20470;-34
2021/05/07 09:35:39;;;;;;;0.73;0.47;;;21.10;46.60;;;;;;5033996;28;20531;-33
2021/05/07 09:38:20;;;;;;;1.90;0.57;;;21.10;46.50;;;;;;5064261;28;20033;-34
2021/05/07 09:40:46;;;;;;;1.35;0.52;;;21.10;46.50;;;;;;5065681;28;20164;-34
2021/05/07 09:43:13;;;;;;;0.57;0.50;;;21.10;46.40;;;;;;5032875;28;20030;-34
2021/05/07 09:45:42;;;;;;;1.20;0.60;;;21.10;46.40;;;;;;5065674;28;20048;-34
2021/05/07 09:48:21;;;;;;;1.23;0.50;;;21.10;46.30;;;;;;5033167;28;20105;-34
2021/05/07 09:50:49;;;;;;;0.82;0.40;;;21.00;46.20;;;;;;5065685;28;20386;-34
2021/05/07 09:53:22;;;;;;;1.60;0.70;;;21.00;46.20;;;;;;5064879;28;20022;-34
2021/05/07 09:55:50;;;;;;;2.17;0.77;;;21.00;46.10;;;;;;5033380;28;20109;-33
2021/05/07 09:58:16;;;;;;;1.40;0.60;;;21.00;46.10;;;;;;5032561;28;20755;-34
2021/05/07 10:00:42;;;;;;;1.20;0.65;;;21.00;46.10;;;;;;5031843;28;20120;-34
2021/05/07 10:03:08;;;;;;;2.67;0.70;;;21.10;46.10;;;;;;5031429;28;20117;-34
2021/05/07 10:05:35;;;;;;;1.77;0.70;;;21.00;45.90;;;;;;5033110;28;20104;-34
2021/05/07 10:08:02;;;;;;;1.63;0.50;;;21.00;46.00;;;;;;5031369;28;20032;-46
2021/05/07 10:10:31;;;;;;;0.90;0.60;;;21.00;45.90;;;;;;5031043;28;20045;-34
2021/05/07 10:13:00;;;;;;;1.48;0.52;;;21.10;45.80;;;;;;5032667;28;20373;-46
2021/05/07 10:15:37;;;;;;;1.08;0.73;;;21.00;45.70;;;;;;5032966;28;20390;-34
2021/05/07 10:18:07;;;;;;;3.30;0.60;;;21.00;45.70;;;;;;5032364;28;20021;-34
2021/05/07 10:20:35;;;;;;;0.90;0.43;;;21.00;45.60;;;;;;5032817;28;20501;-34
2021/05/07 10:23:17;;;;;;;0.70;0.40;;;21.00;45.60;;;;;;5031954;28;20382;-33
2021/05/07 10:26:12;;;;;;;0.77;0.60;;;21.00;45.60;;;;;;5033123;28;20033;-34
2021/05/07 10:28:49;;;;;;;2.03;1.10;;;21.00;45.50;;;;;;5031953;28;20480;-34
2021/05/07 10:31:16;;;;;;;1.13;0.73;;;21.00;45.50;;;;;;5032087;28;20343;-33
2021/05/07 10:34:02;;;;;;;2.08;0.65;;;21.00;45.40;;;;;;5032890;28;20026;-33
2021/05/07 10:36:54;;;;;;;1.10;0.63;;;21.00;45.40;;;;;;5032398;28;20025;-34
2021/05/07 10:39:29;;;;;;;2.50;0.77;;;21.00;45.30;;;;;;5031870;28;20390;-35
2021/05/07 10:41:57;;;;;;;0.98;0.52;;;21.00;46.00;;;;;;5032695;28;20033;-34
2021/05/07 10:44:24;;;;;;;2.33;0.70;;;21.00;45.30;;;;;;5031822;28;20033;-34
2021/05/07 10:47:06;;;;;;;1.08;0.85;;;21.00;45.20;;;;;;5032466;28;20029;-34
2021/05/07 10:49:44;;;;;;;1.08;0.50;;;21.00;45.20;;;;;;5032263;28;20029;-34
2021/05/07 10:52:11;;;;;;;1.40;0.50;;;21.00;45.00;;;;;;5026850;28;20390;-33
2021/05/07 10:54:46;;;;;;;1.10;0.57;;;21.00;45.10;;;;;;5063858;28;20371;-34
2021/05/07 10:57:22;;;;;;;1.15;0.57;;;21.00;45.00;;;;;;5031380;28;20041;-33
2021/05/07 11:00:08;;;;;;;0.88;0.40;;;21.00;45.00;;;;;;5032394;28;20049;-33
2021/05/07 11:02:44;;;;;;;0.73;0.50;;;21.00;45.00;;;;;;5061649;28;20060;-36
2021/05/07 11:05:11;;;;;;;3.63;0.77;;;21.00;45.00;;;;;;5031207;28;20053;-34
2021/05/07 11:07:37;;;;;;;0.52;0.47;;;21.00;44.90;;;;;;5032126;28;20387;-33
2021/05/07 11:10:06;;;;;;;0.98;0.50;;;21.00;44.80;;;;;;5030977;28;20037;-33
2021/05/07 11:12:32;;;;;;;1.67;0.50;;;21.00;44.80;;;;;;5031754;28;20037;-33
2021/05/07 11:14:58;;;;;;;1.45;0.80;;;21.00;44.80;;;;;;5031982;28;20111;-47
2021/05/07 11:17:24;;;;;;;0.70;0.60;;;21.00;44.70;;;;;;5031369;28;20486;-33
2021/05/07 11:19:50;;;;;;;2.88;0.80;;;21.00;44.70;;;;;;5030657;28;20379;-34
2021/05/07 11:22:16;;;;;;;1.30;0.70;;;21.00;44.70;;;;;;5029610;28;20022;-34
2021/05/07 11:24:43;;;;;;;0.82;0.50;;;21.00;44.60;;;;;;5031823;28;20029;-34
2021/05/07 11:27:23;;;;;;;0.75;0.40;;;21.00;44.60;;;;;;5029964;28;20455;-34
2021/05/07 11:29:53;;;;;;;0.98;0.40;;;21.00;44.60;;;;;;5032041;28;20040;-34
2021/05/07 11:32:23;;;;;;;1.23;0.52;;;21.00;44.50;;;;;;5029779;28;20025;-33
2021/05/07 11:34:55;;;;;;;1.75;0.60;;;21.00;44.40;;;;;;5030579;28;20041;-34
2021/05/07 11:37:21;;;;;;;1.70;1.00;;;21.00;44.40;;;;;;5029948;28;20249;-34
2021/05/07 11:39:57;;;;;;;1.00;0.60;;;21.10;44.40;;;;;;5032239;28;20371;-34
2021/05/07 11:42:31;;;;;;;1.30;0.40;;;21.00;44.30;;;;;;5030863;28;20029;-33
2021/05/07 11:44:58;;;;;;;0.75;0.40;;;21.00;44.20;;;;;;5031560;28;20029;-34
2021/05/07 11:47:31;;;;;;;1.60;0.70;;;21.00;44.20;;;;;;5029957;28;20053;-33
2021/05/07 11:49:57;;;;;;;2.00;0.60;;;21.00;44.20;;;;;;5031898;28;20025;-34
2021/05/07 11:52:38;;;;;;;1.17;0.65;;;21.00;44.20;;;;;;5029603;28;20037;-34
2021/05/07 11:55:07;;;;;;;1.00;0.50;;;21.00;44.20;;;;;;5030968;28;20025;-34
2021/05/07 11:57:33;;;;;;;2.90;0.40;;;21.00;44.20;;;;;;5029315;28;20033;-34
2021/05/07 12:00:01;;;;;;;0.57;0.40;;;21.00;44.10;;;;;;5031344;28;20039;-44
2021/05/07 12:02:33;;;;;;;1.58;0.50;;;21.00;44.20;;;;;;5033798;28;20151;-34
2021/05/07 12:04:59;;;;;;;1.80;0.63;;;21.00;44.20;;;;;;5067843;28;20103;-44
2021/05/07 12:07:35;;;;;;;0.85;0.40;;;21.00;44.10;;;;;;5035507;28;20025;-34
2021/05/07 12:10:02;;;;;;;0.95;0.45;;;21.00;44.20;;;;;;5035057;28;20032;-45
2021/05/07 12:12:39;;;;;;;1.23;0.50;;;21.00;44.20;;;;;;5035511;28;20034;-34
2021/05/07 12:15:11;;;;;;;0.52;0.40;;;21.00;44.10;;;;;;5034846;28;20017;-34
2021/05/07 12:17:40;;;;;;;2.05;0.50;;;21.00;44.10;;;;;;5034483;28;20095;-33
2021/05/07 12:20:06;;;;;;;1.63;0.60;;;21.00;44.10;;;;;;5034682;28;20029;-34
2021/05/07 12:22:32;;;;;;;0.93;0.50;;;21.00;44.00;;;;;;5033769;28;20163;-34
2021/05/07 12:25:11;;;;;;;1.50;0.55;;;21.00;44.00;;;;;;5034806;28;20121;-34
2021/05/07 12:27:38;;;;;;;0.65;0.40;;;20.90;44.10;;;;;;5035004;28;20025;-34
2021/05/07 12:30:18;;;;;;;0.47;0.40;;;21.00;44.20;;;;;;5034263;28;20481;-36
2021/05/07 12:33:13;;;;;;;0.88;0.68;;;20.90;44.00;;;;;;5033759;28;20141;-34
2021/05/07 12:35:43;;;;;;;1.85;0.73;;;20.90;44.00;;;;;;5033636;28;20493;-34
2021/05/07 12:40:51;;;;;;;1.08;0.50;;;20.90;44.00;;;;;;5035069;28;20030;-34
2021/05/07 12:43:17;;;;;;;0.75;0.60;;;20.90;44.00;;;;;;5034477;28;20083;-34
2021/05/07 12:45:47;;;;;;;1.83;0.47;;;20.90;44.00;;;;;;5033012;28;20031;-34
2021/05/07 12:48:13;;;;;;;0.68;0.35;;;20.90;43.90;;;;;;5032859;28;20037;-34
2021/05/07 12:50:39;;;;;;;0.60;0.57;;;20.90;43.90;;;;;;5032978;28;20033;-34
2021/05/07 12:53:23;;;;;;;0.50;0.40;;;20.90;43.90;;;;;;5026762;28;20037;-34
2021/05/07 12:55:50;;;;;;;1.08;0.52;;;20.90;44.00;;;;;;5013369;28;20034;-34
2021/05/07 12:58:17;;;;;;;1.30;0.57;;;20.90;43.90;;;;;;5045465;28;20062;-34
2021/05/07 13:00:43;;;;;;;1.00;0.50;;;20.90;43.60;;;;;;5013556;28;20030;-33